createdAt,value
2023-05-01T06:43:03.619Z,101228.53
2023-05-01T06:45:30.621Z,101244.72
2023-05-01T06:47:57.003Z,101228.38
2023-05-01T06:50:23.460Z,101235.72
2023-05-01T06:52:49.810Z,101212.53
2023-05-01T06:55:16.455Z,101216.47
2023-05-01T06:57:42.872Z,101230.44
2023-05-01T07:00:10.462Z,101228.81
2023-05-01T07:02:37.827Z,101232.97
2023-05-01T07:05:05.192Z,101232.38
2023-05-01T07:07:31.632Z,101236.59
2023-05-01T07:09:58.325Z,101238.31
2023-05-01T07:12:25.179Z,101225.25
2023-05-01T07:14:51.940Z,101251.44
2023-05-01T07:17:18.274Z,101262.94
2023-05-01T07:19:44.681Z,101236.75
2023-05-01T07:22:11.990Z,101235.66
2023-05-01T07:24:38.269Z,101219.66
2023-05-01T07:27:04.703Z,101252.84
2023-05-01T07:29:31.065Z,101228.63
2023-05-01T07:31:57.429Z,101240.03
2023-05-01T07:34:24.011Z,101214.19
2023-05-01T07:36:50.345Z,101249.28
2023-05-01T07:39:17.318Z,101234.03
2023-05-01T07:41:44.570Z,101244.25
2023-05-01T07:44:11.602Z,101237.91
2023-05-01T07:46:38.778Z,101240.09
2023-05-01T07:49:06.045Z,101225.44
2023-05-01T07:51:33.155Z,101216.34
2023-05-01T07:54:04.731Z,101224.53
2023-05-01T07:56:32.303Z,101222.47
2023-05-01T07:58:59.480Z,101236.41
2023-05-01T08:01:27.052Z,101230.88
2023-05-01T08:07:10.933Z,101238.84
2023-05-01T08:09:38.088Z,101220.69
2023-05-01T08:12:05.281Z,101228.53
2023-05-01T08:14:32.347Z,101232.09
2023-05-01T08:16:59.630Z,101229.16
2023-05-01T08:19:28.179Z,101233.34
2023-05-01T08:21:55.233Z,101214.91
2023-05-01T08:24:22.414Z,101213.50
2023-05-01T08:26:49.478Z,101219.19
2023-05-01T08:29:16.530Z,101222.22
2023-05-01T08:31:44.171Z,101217.06
2023-05-01T08:34:11.435Z,101224.06
2023-05-01T08:36:38.577Z,101221.25
2023-05-01T08:39:05.664Z,101197.94
2023-05-01T08:41:33.443Z,101217.41
2023-05-01T08:44:04.146Z,101220.97
2023-05-01T08:47:06.900Z,101230.44
2023-05-01T08:49:37.480Z,101223.88
2023-05-01T08:52:07.443Z,101225.25
2023-05-01T08:54:36.858Z,101207.97
2023-05-01T08:57:04.957Z,101192.78
2023-05-01T08:59:35.993Z,101204.88
2023-05-01T09:02:05.241Z,101196.03
2023-05-01T09:04:35.937Z,101204.28
2023-05-01T09:07:03.972Z,101209.16
2023-05-01T09:09:32.172Z,101205.22
2023-05-01T09:12:14.785Z,101211.91
2023-05-01T09:14:42.097Z,101183.25
2023-05-01T09:17:09.734Z,101194.19
2023-05-01T09:19:37.049Z,101198.38
2023-05-01T09:22:10.386Z,101215.88
2023-05-01T09:24:37.908Z,101198.16
2023-05-01T09:27:06.644Z,101177.63
2023-05-01T09:29:42.744Z,101195.94
2023-05-01T09:32:31.428Z,101190.66
2023-05-01T09:35:13.136Z,101218.41
2023-05-01T09:37:41.249Z,101195.91
2023-05-01T09:43:03.484Z,101185.25
2023-05-01T10:23:26.207Z,101167.97
2023-05-01T10:25:54.261Z,101187.28
2023-05-01T10:28:22.156Z,101186.53
2023-05-01T10:30:50.474Z,101195.28
2023-05-01T10:33:19.793Z,101164.53
2023-05-01T10:35:56.130Z,101160.94
2023-05-01T10:38:29.092Z,101178.19
2023-05-01T10:40:56.140Z,101180.56
2023-05-01T10:43:31.133Z,101173.16
2023-05-01T10:48:45.008Z,101186.25
2023-05-01T10:51:18.202Z,101178.34
2023-05-01T10:53:46.938Z,101162.84
2023-05-01T10:56:26.049Z,101171.44
2023-05-01T10:59:01.184Z,101164.13
2023-05-01T11:01:38.175Z,101176.03
2023-05-01T11:04:10.644Z,101156.59
2023-05-01T11:06:40.440Z,101140.69
2023-05-01T11:10:01.283Z,101183.72
2023-05-01T11:13:00.752Z,101175.91
2023-05-01T11:15:52.762Z,101173.00
2023-05-01T11:18:53.487Z,101171.34
2023-05-01T11:21:44.629Z,101153.38
2023-05-01T11:30:25.491Z,101148.69
2023-05-01T11:32:53.853Z,101137.00
2023-05-01T11:35:39.565Z,101138.53
2023-05-01T11:38:31.157Z,101150.56
2023-05-01T11:41:01.983Z,101145.13
2023-05-01T11:43:35.437Z,101133.44
2023-05-01T11:46:33.416Z,101111.56
2023-05-01T11:49:03.188Z,101145.72
2023-05-01T11:51:30.886Z,101137.19
2023-05-01T11:54:30.212Z,101132.59
2023-05-01T11:57:21.827Z,101134.88
2023-05-01T11:59:53.305Z,101115.03
2023-05-01T12:02:22.827Z,101101.97
2023-05-01T12:04:52.744Z,101108.09
2023-05-01T12:07:44.572Z,101111.19
2023-05-01T12:10:16.721Z,101099.47
2023-05-01T12:12:47.683Z,101113.03
2023-05-01T12:15:16.332Z,101128.38
2023-05-01T12:17:48.924Z,101113.47
2023-05-01T12:20:23.809Z,101151.06
2023-05-01T12:22:54.356Z,101107.63
2023-05-01T12:25:25.042Z,101133.59
2023-05-01T12:27:55.277Z,101124.00
2023-05-01T12:30:34.828Z,101127.91
2023-05-01T12:33:28.114Z,101128.09
2023-05-01T12:36:17.268Z,101105.63
2023-05-01T12:39:10.702Z,101118.50
2023-05-01T12:41:54.691Z,101150.53
2023-05-01T12:44:27.792Z,101141.81
2023-05-01T12:47:09.159Z,101125.41
2023-05-01T12:49:41.004Z,101150.53
2023-05-01T12:52:16.815Z,101128.50
2023-05-01T12:54:55.916Z,101148.72
2023-05-01T12:57:23.154Z,101132.13
2023-05-01T13:00:03.621Z,101130.53
2023-05-01T13:02:35.179Z,101151.13
2023-05-01T13:05:13.407Z,101118.88
2023-05-01T13:07:47.985Z,101118.88
2023-05-01T13:10:15.903Z,101118.88
2023-05-01T13:12:46.604Z,101158.31
2023-05-01T13:15:21.972Z,101135.66
2023-05-01T13:17:50.157Z,101131.13
2023-05-01T13:20:27.237Z,101119.38
2023-05-01T13:22:54.519Z,101116.56
2023-05-01T13:25:21.849Z,101121.34
2023-05-01T13:27:53.561Z,101106.06
2023-05-01T13:30:30.954Z,101120.47
2023-05-01T13:32:58.325Z,101099.03
2023-05-01T13:35:40.712Z,101091.88
2023-05-01T13:38:13.016Z,101117.84
2023-05-01T13:40:46.239Z,101096.03
2023-05-01T13:43:22.677Z,101112.53
2023-05-01T13:45:49.956Z,101071.44
2023-05-01T13:48:25.736Z,101087.56
2023-05-01T13:54:57.094Z,101114.06
2023-05-01T13:57:24.615Z,101094.91
2023-05-01T14:00:08.899Z,101093.06
2023-05-01T14:02:43.980Z,101116.47
2023-05-01T14:05:12.110Z,101105.44
2023-05-01T14:08:02.605Z,101090.53
2023-05-01T14:13:23.001Z,101077.56
2023-05-01T14:15:50.157Z,101073.13
2023-05-01T14:18:21.029Z,101086.38
2023-05-01T14:20:48.285Z,101110.97
2023-05-01T14:23:17.161Z,101098.28
2023-05-01T14:25:49.322Z,101111.78
2023-05-01T14:28:16.767Z,101085.44
2023-05-01T14:30:44.426Z,101090.88
2023-05-01T14:33:14.380Z,101113.50
2023-05-01T14:35:51.506Z,101109.91
2023-05-01T14:38:20.709Z,101099.13
2023-05-01T14:40:52.013Z,101081.81
2023-05-01T14:43:21.969Z,101105.59
2023-05-01T14:45:51.660Z,101087.50
2023-05-01T14:48:24.100Z,101104.06
2023-05-01T14:50:52.460Z,101111.38
2023-05-01T14:53:19.557Z,101093.63
2023-05-01T14:55:50.706Z,101097.25
2023-05-01T14:58:17.810Z,101090.41
2023-05-01T15:00:44.877Z,101115.44
2023-05-01T15:03:12.237Z,101107.34
2023-05-01T15:05:39.914Z,101100.50
2023-05-01T15:08:08.683Z,101096.06
2023-05-01T15:10:36.349Z,101098.91
2023-05-01T15:13:03.446Z,101102.94
2023-05-01T15:15:32.024Z,101118.28
2023-05-01T15:17:59.246Z,101120.31
2023-05-01T15:20:26.437Z,101119.09
2023-05-01T15:22:54.127Z,101103.72
2023-05-01T15:25:21.595Z,101129.97
2023-05-01T15:27:50.565Z,101099.28
2023-05-01T15:30:17.657Z,101117.44
2023-05-01T15:32:44.973Z,101119.03
2023-05-01T15:35:12.313Z,101109.34
2023-05-01T15:37:39.540Z,101114.19
2023-05-01T15:40:07.463Z,101124.25
2023-05-01T15:43:34.213Z,101102.00
2023-05-01T15:46:01.597Z,101095.53
2023-05-01T15:48:29.013Z,101104.81
2023-05-01T15:50:56.152Z,101110.84
2023-05-01T15:53:33.896Z,101091.47
2023-05-01T15:56:03.762Z,101126.97
2023-05-01T15:59:20.635Z,101116.88
2023-05-01T16:02:06.117Z,101135.03
2023-05-01T16:04:34.860Z,101118.06
2023-05-01T16:07:21.199Z,101095.38
2023-05-01T16:31:38.496Z,101150.78
2023-05-01T16:34:30.831Z,101122.47
2023-05-01T16:42:57.868Z,101129.75
2023-05-01T16:46:04.841Z,101149.22
2023-05-01T16:48:48.281Z,101122.47
2023-05-01T16:51:16.145Z,101139.41
2023-05-01T16:53:55.121Z,101127.63
2023-05-01T16:56:24.589Z,101125.59
2023-05-01T16:58:55.026Z,101139.28
2023-05-01T17:01:22.152Z,101148.16
2023-05-01T17:03:49.397Z,101149.66
2023-05-01T17:06:16.614Z,101139.09
2023-05-01T17:08:44.612Z,101135.78
2023-05-01T17:11:12.087Z,101134.94
2023-05-01T17:13:56.139Z,101131.22
2023-05-01T17:16:23.298Z,101136.81
2023-05-01T17:18:50.602Z,101140.81
2023-05-01T17:21:25.478Z,101132.69
2023-05-01T17:35:06.447Z,101141.78
2023-05-01T17:37:33.792Z,101155.03
2023-05-01T17:40:02.262Z,101147.28
2023-05-01T17:42:39.885Z,101164.22
2023-05-01T17:48:34.158Z,101153.06
2023-05-01T17:51:01.449Z,101159.91
2023-05-01T17:53:31.402Z,101171.16
2023-05-01T17:55:58.652Z,101150.84
2023-05-01T17:58:43.270Z,101193.28
2023-05-01T18:01:13.063Z,101169.31
2023-05-01T18:03:40.252Z,101190.75
2023-05-01T18:06:07.455Z,101196.06
2023-05-01T18:08:34.872Z,101185.00
2023-05-01T18:11:02.636Z,101185.00
2023-05-01T18:13:32.784Z,101223.81
2023-05-01T18:16:11.523Z,101226.94
2023-05-01T18:18:47.274Z,101200.13
2023-05-01T18:21:26.598Z,101185.91
2023-05-01T18:23:53.667Z,101207.66
2023-05-01T18:26:20.676Z,101221.63
2023-05-01T18:28:47.800Z,101203.09
2023-05-01T18:31:17.767Z,101219.97
2023-05-01T18:33:50.566Z,101232.41
2023-05-01T18:36:19.266Z,101201.41
2023-05-01T18:39:23.189Z,101213.56
2023-05-01T18:45:08.022Z,101243.53
2023-05-01T18:47:35.163Z,101205.00
2023-05-01T18:50:09.955Z,101254.63
2023-05-01T18:52:42.198Z,101249.31
2023-05-01T18:55:11.729Z,101234.22
2023-05-01T18:57:44.626Z,101248.72
2023-05-01T19:00:18.529Z,101257.19
2023-05-01T19:10:31.011Z,101262.91
2023-05-01T19:14:01.154Z,101235.19
2023-05-01T19:19:59.282Z,101260.25
2023-05-01T19:22:27.278Z,101231.94
2023-05-01T19:24:54.377Z,101281.81
2023-05-01T19:27:21.699Z,101273.69
2023-05-01T19:29:48.933Z,101279.03
2023-05-01T19:32:16.169Z,101288.41
2023-05-01T19:34:43.321Z,101279.03
2023-05-01T19:37:13.418Z,101287.53
2023-05-01T19:39:42.124Z,101302.38
2023-05-01T19:42:18.002Z,101298.41
2023-05-01T19:44:46.351Z,101301.81
2023-05-01T19:47:13.639Z,101315.41
2023-05-01T19:49:54.230Z,101318.03
2023-05-01T19:52:24.112Z,101294.47
2023-05-01T19:54:51.222Z,101337.34
2023-05-01T19:57:18.416Z,101312.78
2023-05-01T19:59:45.728Z,101300.16
2023-05-01T20:02:14.722Z,101300.59
2023-05-01T20:08:56.477Z,101293.41
2023-05-01T20:16:55.977Z,101323.09
2023-05-01T20:19:23.624Z,101324.81
2023-05-01T20:21:50.682Z,101322.28
2023-05-01T20:24:17.825Z,101333.50
2023-05-01T20:26:45.013Z,101327.38
2023-05-01T20:29:13.470Z,101368.59
2023-05-01T20:31:40.821Z,101349.44
2023-05-01T20:34:10.810Z,101334.97
2023-05-01T20:36:41.046Z,101349.72
2023-05-01T20:39:08.576Z,101340.72
2023-05-01T20:41:35.629Z,101391.25
2023-05-01T20:44:02.813Z,101368.72
2023-05-01T20:46:30.103Z,101361.25
2023-05-01T20:48:57.386Z,101360.34
2023-05-01T20:51:25.321Z,101354.66
2023-05-01T20:53:52.347Z,101365.06
